createdAt,value
2016-04-27T00:00:19.732Z,64.24
2016-04-27T00:01:19.781Z,64.24
2016-04-27T00:02:19.830Z,64.24
2016-04-27T00:03:19.865Z,64.24
2016-04-27T00:04:19.915Z,64.24
2016-04-27T00:05:19.948Z,64.24
2016-04-27T00:06:19.826Z,64.34
2016-04-27T00:07:20.015Z,64.24
2016-04-27T00:08:20.082Z,64.14
2016-04-27T00:09:20.115Z,64.14
2016-04-27T00:10:20.164Z,64.34
2016-04-27T00:11:20.198Z,64.14
2016-04-27T00:12:20.232Z,64.24
2016-04-27T00:13:20.282Z,64.34
2016-04-27T00:14:20.331Z,64.14
2016-04-27T00:15:20.365Z,64.24
2016-04-27T00:16:20.414Z,64.24
2016-04-27T00:17:20.449Z,64.14
2016-04-27T00:18:20.498Z,64.14
2016-04-27T00:19:20.532Z,64.14
2016-04-27T00:20:20.567Z,64.14
2016-04-27T00:21:20.616Z,64.24
2016-04-27T00:22:21.572Z,64.14
2016-04-27T00:23:20.700Z,64.34
2016-04-27T00:24:20.733Z,64.43
2016-04-27T00:25:20.783Z,64.43
2016-04-27T00:26:20.832Z,64.34
2016-04-27T00:27:20.897Z,64.43
2016-04-27T00:28:20.916Z,64.34
2016-04-27T00:29:20.966Z,64.24
2016-04-27T00:30:20.999Z,64.24
2016-04-27T00:31:21.065Z,64.34
2016-04-27T00:32:21.068Z,64.34
2016-04-27T00:33:21.118Z,64.05
2016-04-27T00:34:21.166Z,64.34
2016-04-27T00:35:21.201Z,64.24
2016-04-27T00:36:21.078Z,64.34
2016-04-27T00:37:21.299Z,64.34
2016-04-27T00:38:21.334Z,64.34
2016-04-27T00:39:21.383Z,64.43
2016-04-27T00:40:21.410Z,64.24
2016-04-27T00:41:21.457Z,64.34
2016-04-27T00:42:21.494Z,64.53
2016-04-27T00:43:21.377Z,63.95
2016-04-27T00:44:21.596Z,64.14
2016-04-27T00:45:21.621Z,64.14
2016-04-27T00:46:21.671Z,64.34
2016-04-27T00:47:21.704Z,64.24
2016-04-27T00:48:21.739Z,64.24
2016-04-27T00:49:27.632Z,64.14
2016-04-27T00:50:21.823Z,64.14
2016-04-27T00:51:23.137Z,64.14
2016-04-27T00:52:21.906Z,64.24
2016-04-27T00:53:21.955Z,64.24
2016-04-27T00:54:22.004Z,64.24
2016-04-27T00:55:22.039Z,64.34
2016-04-27T00:56:22.089Z,64.34
2016-04-27T00:57:22.122Z,64.34
2016-04-27T00:58:22.202Z,64.34
2016-04-27T00:59:22.206Z,64.24
2016-04-27T01:00:22.255Z,64.24
2016-04-27T01:01:22.289Z,64.24
2016-04-27T01:02:22.339Z,64.24
2016-04-27T01:03:22.372Z,64.14
2016-04-27T01:04:22.407Z,64.14
2016-04-27T01:05:22.455Z,64.34
2016-04-27T01:06:22.772Z,64.34
2016-04-27T01:07:22.540Z,64.24
2016-04-27T01:08:22.573Z,64.24
2016-04-27T01:09:22.624Z,64.14
2016-04-27T01:10:22.673Z,64.24
2016-04-27T01:11:22.721Z,64.24
2016-04-27T01:12:22.756Z,64.24
2016-04-27T01:13:22.790Z,63.95
2016-04-27T01:14:22.840Z,64.24
2016-04-27T01:15:22.889Z,64.21
2016-04-27T01:16:22.923Z,64.24
2016-04-27T01:17:22.957Z,64.24
2016-04-27T01:18:23.006Z,64.34
2016-04-27T01:19:23.056Z,64.21
2016-04-27T01:20:23.090Z,64.14
2016-04-27T01:21:23.514Z,64.31
2016-04-27T01:22:23.179Z,64.21
2016-04-27T01:23:24.511Z,64.24
2016-04-27T01:24:23.249Z,64.34
2016-04-27T01:25:23.299Z,63.95
2016-04-27T01:26:23.333Z,64.31
2016-04-27T01:27:23.382Z,64.34
2016-04-27T01:28:23.416Z,64.34
2016-04-27T01:29:23.466Z,64.34
2016-04-27T01:30:23.500Z,63.95
2016-04-27T01:31:23.565Z,64.24
2016-04-27T01:32:23.599Z,64.24
2016-04-27T01:33:23.649Z,64.24
2016-04-27T01:34:23.667Z,64.24
2016-04-27T01:35:23.716Z,64.24
2016-04-27T01:36:23.860Z,64.24
2016-04-27T01:37:23.800Z,64.34
2016-04-27T01:38:23.849Z,64.43
2016-04-27T01:39:23.883Z,64.14
2016-04-27T01:40:23.932Z,64.14
2016-04-27T01:41:23.982Z,64.43
2016-04-27T01:42:24.016Z,64.24
2016-04-27T01:43:24.050Z,64.24
2016-04-27T01:44:24.100Z,64.43
2016-04-27T01:45:24.134Z,64.24
2016-04-27T01:46:24.168Z,64.34
2016-04-27T01:47:24.233Z,64.34
2016-04-27T01:48:24.267Z,64.05
2016-04-27T01:49:24.317Z,64.43
2016-04-27T01:50:24.352Z,64.24
2016-04-27T01:51:24.385Z,64.05
2016-04-27T01:52:24.435Z,63.95
2016-04-27T01:53:24.469Z,63.95
2016-04-27T01:54:24.518Z,64.24
2016-04-27T01:55:24.551Z,64.34
2016-04-27T01:56:24.602Z,64.43
2016-04-27T01:57:24.636Z,64.34
2016-04-27T01:58:24.685Z,64.24
2016-04-27T01:59:24.734Z,63.95
2016-04-27T02:00:24.769Z,64.24
2016-04-27T02:01:24.818Z,64.14
2016-04-27T02:02:24.853Z,64.24
2016-04-27T02:03:24.886Z,64.24
2016-04-27T02:04:24.936Z,64.24
2016-04-27T02:05:24.986Z,64.24
2016-04-27T02:06:24.879Z,64.34
2016-04-27T02:07:25.069Z,64.24
2016-04-27T02:08:25.103Z,64.34
2016-04-27T02:09:25.153Z,64.34
2016-04-27T02:10:25.187Z,64.34
2016-04-27T02:11:25.220Z,64.43
2016-04-27T02:12:25.285Z,64.24
2016-04-27T02:13:25.507Z,64.24
2016-04-27T02:14:25.369Z,64.24
2016-04-27T02:15:25.402Z,64.24
2016-04-27T02:16:25.452Z,64.14
2016-04-27T02:17:25.486Z,64.24
2016-04-27T02:18:25.536Z,64.34
2016-04-27T02:19:25.554Z,64.24
2016-04-27T02:20:25.604Z,64.43
2016-04-27T02:21:26.138Z,64.24
2016-04-27T02:22:25.704Z,64.43
2016-04-27T02:23:25.752Z,64.24
2016-04-27T02:24:25.787Z,64.05
2016-04-27T02:25:25.821Z,64.24
2016-04-27T02:26:25.871Z,64.43
2016-04-27T02:27:25.903Z,64.14
2016-04-27T02:28:25.953Z,64.43
2016-04-27T02:29:25.988Z,63.95
2016-04-27T02:30:26.037Z,64.14
2016-04-27T02:31:26.070Z,64.05
2016-04-27T02:32:26.120Z,64.05
2016-04-27T02:33:26.154Z,64.05
2016-04-27T02:34:26.204Z,64.05
2016-04-27T02:35:26.238Z,63.95
2016-04-27T02:36:26.835Z,63.95
2016-04-27T02:37:26.336Z,64.14
2016-04-27T02:38:26.372Z,63.95
2016-04-27T02:39:26.405Z,64.14
2016-04-27T02:40:26.455Z,64.14
2016-04-27T02:41:26.505Z,64.05
2016-04-27T02:42:26.561Z,63.95
2016-04-27T02:43:26.637Z,64.14
2016-04-27T02:44:26.712Z,64.14
2016-04-27T02:45:26.789Z,63.95
2016-04-27T02:46:26.896Z,64.05
2016-04-27T02:47:26.950Z,64.14
2016-04-27T02:48:27.016Z,64.14
2016-04-27T02:49:27.081Z,63.95
2016-04-27T02:50:27.163Z,64.14
2016-04-27T02:51:27.367Z,64.05
2016-04-27T02:52:27.242Z,64.05
2016-04-27T02:53:27.298Z,64.05
2016-04-27T02:54:27.337Z,63.95
2016-04-27T02:55:27.392Z,63.95
2016-04-27T02:56:27.431Z,63.85
2016-04-27T02:57:27.486Z,63.66
2016-04-27T02:58:27.521Z,63.85
2016-04-27T02:59:27.574Z,63.76
2016-04-27T03:00:27.609Z,63.85
2016-04-27T03:01:27.660Z,63.95
2016-04-27T03:02:27.712Z,63.95
2016-04-27T03:03:27.746Z,63.95
2016-04-27T03:04:27.797Z,64.05
2016-04-27T03:05:27.831Z,63.85
2016-04-27T03:06:28.460Z,63.85
2016-04-27T03:07:27.916Z,63.76
2016-04-27T03:08:27.966Z,63.85
2016-04-27T03:09:28.001Z,63.85
2016-04-27T03:10:28.050Z,63.76
2016-04-27T03:11:28.116Z,63.85
2016-04-27T03:12:28.135Z,63.95
2016-04-27T03:13:28.170Z,63.95
2016-04-27T03:14:28.218Z,63.95
2016-04-27T03:15:28.267Z,63.95
2016-04-27T03:16:28.302Z,64.05
2016-04-27T03:17:28.351Z,64.05
2016-04-27T03:18:28.385Z,63.76
2016-04-27T03:19:28.419Z,64.05
2016-04-27T03:20:28.469Z,64.14
2016-04-27T03:21:29.066Z,64.05
2016-04-27T03:22:28.552Z,63.95
2016-04-27T03:23:28.602Z,64.05
2016-04-27T03:24:28.636Z,64.05
2016-04-27T03:25:28.686Z,63.95
2016-04-27T03:26:28.735Z,64.05
2016-04-27T03:27:28.768Z,64.05
2016-04-27T03:28:28.803Z,63.85
2016-04-27T03:29:28.852Z,64.05
2016-04-27T03:30:28.886Z,63.95
2016-04-27T03:31:28.936Z,64.05
2016-04-27T03:32:28.985Z,63.85
2016-04-27T03:33:29.035Z,64.05
2016-04-27T03:34:29.054Z,64.05
2016-04-27T03:35:29.103Z,63.95
2016-04-27T03:36:32.590Z,64.14
2016-04-27T03:37:29.218Z,64.05
2016-04-27T03:38:29.236Z,63.95
2016-04-27T03:39:29.285Z,63.95
2016-04-27T03:40:29.320Z,63.85
2016-04-27T03:41:29.353Z,63.85
2016-04-27T03:42:29.403Z,63.85
2016-04-27T03:43:29.437Z,63.76
2016-04-27T03:44:29.486Z,63.76
2016-04-27T03:45:29.520Z,63.85
2016-04-27T03:46:29.570Z,63.76
2016-04-27T03:47:29.464Z,63.85
2016-04-27T03:48:29.653Z,63.76
2016-04-27T03:49:29.703Z,63.76
2016-04-27T03:50:29.736Z,64.14
2016-04-27T03:51:31.256Z,64.05
2016-04-27T03:52:30.227Z,63.76
2016-04-27T03:53:29.870Z,63.76
2016-04-27T03:54:29.905Z,64.05
2016-04-27T03:55:29.953Z,64.05
2016-04-27T03:56:29.988Z,64.14
2016-04-27T03:57:30.037Z,64.05
2016-04-27T03:58:30.071Z,64.14
2016-04-27T03:59:30.121Z,64.24
2016-04-27T04:00:30.170Z,64.14
2016-04-27T04:01:30.204Z,64.05
2016-04-27T04:02:30.238Z,64.14
2016-04-27T04:03:30.288Z,64.05
2016-04-27T04:04:30.337Z,64.05
2016-04-27T04:05:30.388Z,64.24
2016-04-27T04:06:32.374Z,64.05
2016-04-27T04:07:30.299Z,64.05
2016-04-27T04:08:30.489Z,64.14
2016-04-27T04:09:30.539Z,64.05
2016-04-27T04:10:30.573Z,64.14
2016-04-27T04:11:30.639Z,64.05
2016-04-27T04:12:30.672Z,64.14
2016-04-27T04:13:30.721Z,64.14
2016-04-27T04:14:30.755Z,64.14
2016-04-27T04:15:30.790Z,64.14
2016-04-27T04:16:30.839Z,64.05
2016-04-27T04:17:30.874Z,63.95
2016-04-27T04:18:30.907Z,64.14
2016-04-27T04:19:31.582Z,64.14
2016-04-27T04:20:31.007Z,64.14
2016-04-27T04:21:31.056Z,64.14
2016-04-27T04:22:30.938Z,64.14
2016-04-27T04:23:31.127Z,64.14
2016-04-27T04:24:33.146Z,64.14
2016-04-27T04:25:31.210Z,64.14
2016-04-27T04:26:31.277Z,64.14
2016-04-27T04:27:31.310Z,64.14
2016-04-27T04:28:31.344Z,64.24
2016-04-27T04:29:31.378Z,64.14
2016-04-27T04:30:31.428Z,64.24
2016-04-27T04:31:31.477Z,64.24
2016-04-27T04:32:31.511Z,64.24
2016-04-27T04:33:31.560Z,64.34
2016-04-27T04:34:31.595Z,64.24
2016-04-27T04:35:31.628Z,64.34
2016-04-27T04:36:32.256Z,64.34
2016-04-27T04:37:31.587Z,64.24
2016-04-27T04:38:31.762Z,64.24
2016-04-27T04:39:31.811Z,64.14
2016-04-27T04:40:31.845Z,64.24
2016-04-27T04:41:31.895Z,64.14
2016-04-27T04:42:31.944Z,64.24
2016-04-27T04:43:31.963Z,63.85
2016-04-27T04:44:32.028Z,64.14
2016-04-27T04:45:32.062Z,64.05
2016-04-27T04:46:32.158Z,64.05
2016-04-27T04:47:32.145Z,64.14
2016-04-27T04:48:32.195Z,64.05
2016-04-27T04:49:32.228Z,64.05
2016-04-27T04:50:32.278Z,64.05
2016-04-27T04:51:36.562Z,63.95
2016-04-27T04:52:32.361Z,63.95
2016-04-27T04:53:32.397Z,63.95
2016-04-27T04:54:32.445Z,63.85
2016-04-27T04:55:32.479Z,63.85
2016-04-27T04:56:32.529Z,63.76
2016-04-27T04:57:32.563Z,63.95
2016-04-27T04:58:32.612Z,64.05
2016-04-27T04:59:32.646Z,63.85
2016-04-27T05:00:32.697Z,63.95
2016-04-27T05:01:32.746Z,64.14
2016-04-27T05:02:32.780Z,63.95
2016-04-27T05:03:32.829Z,63.76
2016-04-27T05:04:32.863Z,63.47
2016-04-27T05:05:32.913Z,63.47
2016-04-27T05:06:32.962Z,63.79
2016-04-27T05:07:32.996Z,63.66
2016-04-27T05:08:33.029Z,63.76
2016-04-27T05:09:33.079Z,63.66
2016-04-27T05:10:33.113Z,63.66
2016-04-27T05:11:33.148Z,63.66
2016-04-27T05:12:33.198Z,63.47
2016-04-27T05:13:33.246Z,63.66
2016-04-27T05:14:33.296Z,63.76
2016-04-27T05:15:33.330Z,63.56
2016-04-27T05:16:33.364Z,63.66
2016-04-27T05:17:33.413Z,63.66
2016-04-27T05:18:33.463Z,63.47
2016-04-27T05:19:33.497Z,63.47
2016-04-27T05:20:33.531Z,63.66
2016-04-27T05:21:33.581Z,63.66
2016-04-27T05:22:33.630Z,63.66
2016-04-27T05:23:33.664Z,63.56
2016-04-27T05:24:33.697Z,63.56
2016-04-27T05:25:33.763Z,63.56
2016-04-27T05:26:33.797Z,63.6
2016-04-27T05:27:33.846Z,63.69
2016-04-27T05:28:33.881Z,63.66
2016-04-27T05:29:33.930Z,63.56
2016-04-27T05:30:33.964Z,63.66
2016-04-27T05:31:33.999Z,63.66
2016-04-27T05:32:33.891Z,63.66
2016-04-27T05:33:34.082Z,63.76
2016-04-27T05:34:34.131Z,63.56
2016-04-27T05:35:34.180Z,63.56
2016-04-27T05:36:34.215Z,63.76
2016-04-27T05:37:34.265Z,63.66
2016-04-27T05:38:34.298Z,63.69
2016-04-27T05:39:34.348Z,63.66
2016-04-27T05:40:34.398Z,63.95
2016-04-27T05:41:34.431Z,63.66
2016-04-27T05:42:34.481Z,63.69
2016-04-27T05:43:34.530Z,63.69
2016-04-27T05:44:34.548Z,63.47
2016-04-27T05:45:34.614Z,63.37
2016-04-27T05:46:34.648Z,63.37
2016-04-27T05:47:34.682Z,64.05
2016-04-27T05:48:34.731Z,63.47
2016-04-27T05:49:34.765Z,63.37
2016-04-27T05:50:34.799Z,63.37
2016-04-27T05:51:34.848Z,63.4
2016-04-27T05:52:36.492Z,63.47
2016-04-27T05:53:34.948Z,63.28
2016-04-27T05:54:34.981Z,63.28
2016-04-27T05:55:35.031Z,63.37
2016-04-27T05:56:35.066Z,63.66
2016-04-27T05:57:35.100Z,63.56
2016-04-27T05:58:35.149Z,63.28
2016-04-27T05:59:35.199Z,63.28
2016-04-27T06:00:35.232Z,63.66
2016-04-27T06:01:35.266Z,63.28
2016-04-27T06:02:35.316Z,63.28
2016-04-27T06:03:35.366Z,63.28
2016-04-27T06:04:35.399Z,63.47
2016-04-27T06:05:35.433Z,63.37
2016-04-27T06:06:35.498Z,63.95
2016-04-27T06:07:36.126Z,63.28
2016-04-27T06:08:35.566Z,63.37
2016-04-27T06:09:35.615Z,63.28
2016-04-27T06:10:35.650Z,63.56
2016-04-27T06:11:35.699Z,63.28
2016-04-27T06:12:35.749Z,63.28
2016-04-27T06:13:35.783Z,64.05
2016-04-27T06:14:35.832Z,63.85
2016-04-27T06:15:35.867Z,63.95
2016-04-27T06:16:35.915Z,63.56
2016-04-27T06:17:35.950Z,63.47
2016-04-27T06:18:36.000Z,63.56
2016-04-27T06:19:36.033Z,63.56
2016-04-27T06:20:36.068Z,63.4
2016-04-27T06:21:36.117Z,63.95
2016-04-27T06:22:36.011Z,63.47
2016-04-27T06:23:36.201Z,63.37
2016-04-27T06:24:36.250Z,63.47
2016-04-27T06:25:36.284Z,63.37
2016-04-27T06:26:36.333Z,63.21
2016-04-27T06:27:36.383Z,63.47
2016-04-27T06:28:36.417Z,63.47
2016-04-27T06:29:36.450Z,63.37
2016-04-27T06:30:36.500Z,63.28
2016-04-27T06:31:36.535Z,63.56
2016-04-27T06:32:36.583Z,63.37
2016-04-27T06:33:36.618Z,63.95
2016-04-27T06:34:36.668Z,63.47
2016-04-27T06:35:36.716Z,63.85
2016-04-27T06:36:36.751Z,63.89
2016-04-27T06:37:37.909Z,63.37
2016-04-27T06:38:36.850Z,63.5
2016-04-27T06:39:36.884Z,63.37
2016-04-27T06:40:36.918Z,63.6
2016-04-27T06:41:36.968Z,63.28
2016-04-27T06:42:37.001Z,63.95
2016-04-27T06:43:37.067Z,63.56
2016-04-27T06:44:37.101Z,63.95
2016-04-27T06:45:37.134Z,63.31
2016-04-27T06:46:37.184Z,63.66
2016-04-27T06:47:37.234Z,63.4
2016-04-27T06:48:37.252Z,63.37
2016-04-27T06:49:37.302Z,63.31
2016-04-27T06:50:37.336Z,63.5
2016-04-27T06:51:37.384Z,63.5
2016-04-27T06:52:37.842Z,63.66
2016-04-27T06:53:37.469Z,63.69
2016-04-27T06:54:37.518Z,63.69
2016-04-27T06:55:37.567Z,63.69
2016-04-27T06:56:37.602Z,63.66
2016-04-27T06:57:37.651Z,63.56
2016-04-27T06:58:37.686Z,63.6
2016-04-27T06:59:37.735Z,63.5
2016-04-27T07:00:37.769Z,63.56
2016-04-27T07:01:37.819Z,63.6
2016-04-27T07:02:37.852Z,63.5
2016-04-27T07:03:37.902Z,63.98
2016-04-27T07:04:37.951Z,63.6
2016-04-27T07:05:37.969Z,63.6
2016-04-27T07:06:38.019Z,63.69
2016-04-27T07:07:38.085Z,63.5
2016-04-27T07:08:38.119Z,63.69
2016-04-27T07:09:38.152Z,63.6
2016-04-27T07:10:38.186Z,63.79
2016-04-27T07:11:38.252Z,63.79
2016-04-27T07:12:38.285Z,63.6
2016-04-27T07:13:38.319Z,63.79
2016-04-27T07:14:38.368Z,63.5
2016-04-27T07:15:38.403Z,63.79
2016-04-27T07:16:38.452Z,63.79
2016-04-27T07:17:38.487Z,63.69
2016-04-27T07:18:38.537Z,63.79
2016-04-27T07:19:38.570Z,63.5
2016-04-27T07:20:38.604Z,63.69
2016-04-27T07:21:40.715Z,63.5
2016-04-27T07:22:38.703Z,63.79
2016-04-27T07:23:38.752Z,63.6
2016-04-27T07:24:38.787Z,64.18
2016-04-27T07:25:38.820Z,63.79
2016-04-27T07:26:38.869Z,63.98
2016-04-27T07:27:38.904Z,64.08
2016-04-27T07:28:39.000Z,63.98
2016-04-27T07:29:39.002Z,63.79
2016-04-27T07:30:39.037Z,63.89
2016-04-27T07:31:40.180Z,63.79
2016-04-27T07:32:39.120Z,63.79
2016-04-27T07:33:39.170Z,63.89
2016-04-27T07:34:39.579Z,64.18
2016-04-27T07:35:39.628Z,63.89
2016-04-27T07:36:40.100Z,63.89
2016-04-27T07:37:41.477Z,63.79
2016-04-27T07:38:39.777Z,63.69
2016-04-27T07:39:39.780Z,63.98
2016-04-27T07:40:39.829Z,63.89
2016-04-27T07:41:40.863Z,63.79
2016-04-27T07:42:39.897Z,63.6
2016-04-27T07:43:39.994Z,63.89
2016-04-27T07:44:39.637Z,63.79
2016-04-27T07:45:39.670Z,63.79
2016-04-27T07:46:39.721Z,63.98
2016-04-27T07:47:39.755Z,63.98
2016-04-27T07:48:39.788Z,63.98
2016-04-27T07:49:39.854Z,63.89
2016-04-27T07:50:39.887Z,64.18
2016-04-27T07:51:41.562Z,63.89
2016-04-27T07:52:39.987Z,64.27
2016-04-27T07:53:40.020Z,64.27
2016-04-27T07:54:40.054Z,64.27
2016-04-27T07:55:40.104Z,64.18
2016-04-27T07:56:41.747Z,64.27
2016-04-27T07:57:40.172Z,64.08
2016-04-27T07:58:40.221Z,64.18
2016-04-27T07:59:40.255Z,64.18
2016-04-27T08:00:40.320Z,64.08
2016-04-27T08:01:40.855Z,64.27
2016-04-27T08:02:40.405Z,64.18
2016-04-27T08:03:40.438Z,64.18
2016-04-27T08:04:40.488Z,64.18
2016-04-27T08:05:40.537Z,64.08
2016-04-27T08:06:40.572Z,64.08
2016-04-27T08:07:40.605Z,64.18
2016-04-27T08:08:40.655Z,64.37
2016-04-27T08:09:40.688Z,64.08
2016-04-27T08:10:40.738Z,64.27
2016-04-27T08:11:43.413Z,64.27
2016-04-27T08:12:40.821Z,64.27
2016-04-27T08:13:40.871Z,64.18
2016-04-27T08:14:40.905Z,64.37
2016-04-27T08:15:40.940Z,64.08
2016-04-27T08:16:41.004Z,64.08
2016-04-27T08:17:41.038Z,63.89
2016-04-27T08:18:41.072Z,63.98
2016-04-27T08:19:41.122Z,63.98
2016-04-27T08:20:41.156Z,63.6
2016-04-27T08:21:43.002Z,63.5
2016-04-27T08:22:41.787Z,63.53
2016-04-27T08:23:41.289Z,63.6
2016-04-27T08:24:41.182Z,63.69
2016-04-27T08:25:41.372Z,63.5
2016-04-27T08:26:44.375Z,63.6
2016-04-27T08:27:41.471Z,63.69
2016-04-27T08:28:41.506Z,63.5
2016-04-27T08:29:41.555Z,63.79
2016-04-27T08:30:41.589Z,63.89
2016-04-27T08:31:42.686Z,64.08
2016-04-27T08:32:41.669Z,64.08
2016-04-27T08:33:41.720Z,64.08
2016-04-27T08:34:41.769Z,64.27
2016-04-27T08:35:41.786Z,64.27
2016-04-27T08:36:45.009Z,64.18
2016-04-27T08:37:41.730Z,64.08
2016-04-27T08:38:41.952Z,63.89
2016-04-27T08:39:41.969Z,63.98
2016-04-27T08:40:42.004Z,64.08
2016-04-27T08:41:44.007Z,64.08
2016-04-27T08:42:42.368Z,63.79
2016-04-27T08:43:42.137Z,64.08
2016-04-27T08:44:42.185Z,63.98
2016-04-27T08:45:42.221Z,63.98
2016-04-27T08:46:42.270Z,64.08
2016-04-27T08:47:42.318Z,63.98
2016-04-27T08:48:42.572Z,64.18
2016-04-27T08:49:42.387Z,64.27
2016-04-27T08:50:42.437Z,64.27
2016-04-27T08:51:42.487Z,64.27
2016-04-27T08:52:43.254Z,64.37
2016-04-27T08:53:42.570Z,64.27
2016-04-27T08:54:42.603Z,64.27
2016-04-27T08:55:42.654Z,64.37
2016-04-27T08:56:42.687Z,64.27
2016-04-27T08:57:42.752Z,64.27
2016-04-27T08:58:42.990Z,64.27
2016-04-27T08:59:43.648Z,64.18
2016-04-27T09:00:42.854Z,64.27
2016-04-27T09:01:42.903Z,64.56
2016-04-27T09:02:42.938Z,64.59
2016-04-27T09:03:42.987Z,64.66
2016-04-27T09:04:43.037Z,64.66
2016-04-27T09:05:43.102Z,64.59
2016-04-27T09:06:43.120Z,64.69
2016-04-27T09:07:43.780Z,64.5
2016-04-27T09:08:43.204Z,64.4
2016-04-27T09:09:44.644Z,64.66
2016-04-27T09:10:43.288Z,64.59
2016-04-27T09:11:43.322Z,64.69
2016-04-27T09:12:43.371Z,64.5
2016-04-27T09:13:43.717Z,64.69
2016-04-27T09:14:43.454Z,64.5
2016-04-27T09:15:43.488Z,64.69
2016-04-27T09:16:45.741Z,64.56
2016-04-27T09:17:43.619Z,64.59
2016-04-27T09:18:43.621Z,64.69
2016-04-27T09:19:43.718Z,64.69
2016-04-27T09:20:43.705Z,64.69
2016-04-27T09:21:43.754Z,64.5
2016-04-27T09:22:44.992Z,64.69
2016-04-27T09:23:43.838Z,64.59
2016-04-27T09:24:43.872Z,64.69
2016-04-27T09:25:43.921Z,64.69
2016-04-27T09:26:44.830Z,64.69
2016-04-27T09:27:44.006Z,64.56
2016-04-27T09:28:44.054Z,64.66
2016-04-27T09:29:44.089Z,64.69
2016-04-27T09:30:44.138Z,64.59
2016-04-27T09:31:44.172Z,64.59
2016-04-27T09:32:44.222Z,64.69
2016-04-27T09:33:44.256Z,64.59
2016-04-27T09:34:44.305Z,64.59
2016-04-27T09:35:44.355Z,64.69
2016-04-27T09:36:43.467Z,65.95
2016-04-27T09:37:43.516Z,65.56
2016-04-27T09:38:43.566Z,65.75
2016-04-27T09:39:43.599Z,65.75
2016-04-27T09:40:43.650Z,65.72
2016-04-27T09:41:43.683Z,65.92
2016-04-27T09:42:43.733Z,65.63
2016-04-27T09:43:43.783Z,63.28
2016-04-27T09:44:43.816Z,62.7
2016-04-27T09:45:43.866Z,64.24
2016-04-27T09:46:43.916Z,63.76
2016-04-27T09:47:43.965Z,63.08
2016-04-27T09:48:43.983Z,60.96
2016-04-27T09:49:44.174Z,60.54
2016-04-27T09:50:44.083Z,60.73
2016-04-27T09:51:44.116Z,61.12
2016-04-27T09:52:44.166Z,58.32
2016-04-27T09:53:44.201Z,57.74
2016-04-27T09:54:44.249Z,59.06
2016-04-27T10:51:38.622Z,78.56
2016-04-27T10:52:38.655Z,85.32
2016-04-27T10:53:39.690Z,89.36
2016-04-27T10:54:38.708Z,96.17
2016-04-27T10:55:38.743Z,88.87
2016-04-27T10:56:38.745Z,83.8
2016-04-27T10:57:38.762Z,79.44
2016-04-27T10:58:43.844Z,76.65
2016-04-27T10:59:43.893Z,75.79
2016-04-27T11:00:24.713Z,77.31
2016-04-27T11:01:24.730Z,75.39
2016-04-27T11:02:24.764Z,73.55
2016-04-27T11:03:24.799Z,71.72
2016-04-27T11:04:24.849Z,71.09
2016-04-27T11:05:24.867Z,70.13
2016-04-27T11:06:24.916Z,70.17
2016-04-27T11:07:24.949Z,69.53
2016-04-27T11:08:24.985Z,69.62
2016-04-27T11:09:25.018Z,69.24
2016-04-27T11:10:25.052Z,69.24
2016-04-27T11:11:25.086Z,72.92
2016-04-27T11:12:25.120Z,76.14
2016-04-27T11:12:53.451Z,77.81
2016-04-27T11:13:30.060Z,78.81
2016-04-27T11:15:58.927Z,77.44
2016-04-27T11:16:58.961Z,76.18
2016-04-27T11:17:59.230Z,73.82
2016-04-27T11:18:37.762Z,72.12
2016-04-27T11:19:38.623Z,71.44
2016-04-27T11:20:54.503Z,72.83
2016-04-27T11:21:37.425Z,74.27
2016-04-27T11:22:37.459Z,73.44
2016-04-27T11:23:37.493Z,71.7
2016-04-27T11:24:37.542Z,71.94
2016-04-27T11:25:37.592Z,71.64
2016-04-27T11:26:37.611Z,70.2
2016-04-27T11:27:37.660Z,70.14
2016-04-27T11:28:37.709Z,70.23
2016-04-27T11:29:37.728Z,69.65
2016-04-27T11:30:37.778Z,69.07
2016-04-27T11:31:37.812Z,69.65
2016-04-27T11:32:37.861Z,67.94
2016-04-27T11:33:37.895Z,65.14
2016-04-27T11:34:37.929Z,64.76
2016-04-27T11:35:37.963Z,64.66
2016-04-27T11:36:37.997Z,64.95
2016-04-27T11:37:38.375Z,64.76
2016-04-27T11:38:38.191Z,64.66
2016-04-27T11:39:38.114Z,64.56
2016-04-27T11:40:38.163Z,64.56
2016-04-27T11:41:38.198Z,64.56
2016-04-27T11:42:38.247Z,64.66
2016-04-27T11:43:38.282Z,64.24
2016-04-27T11:44:38.315Z,64.34
2016-04-27T11:45:38.365Z,64.63
2016-04-27T11:46:38.398Z,64.63
2016-04-27T11:47:38.432Z,64.63
2016-04-27T11:48:38.482Z,64.43
2016-04-27T11:49:38.543Z,64.43
2016-04-27T11:50:38.638Z,64.53
2016-04-27T11:51:38.717Z,64.53
2016-04-27T11:52:38.811Z,64.43
2016-04-27T11:53:38.890Z,64.53
2016-04-27T11:54:38.952Z,64.63
2016-04-27T11:55:39.018Z,64.63
2016-04-27T11:56:39.068Z,64.34
2016-04-27T11:57:39.117Z,64.53
2016-04-27T11:58:39.183Z,64.43
2016-04-27T11:59:39.226Z,64.24
2016-04-27T12:00:39.282Z,64.43
2016-04-27T12:01:39.322Z,64.14
2016-04-27T12:02:39.361Z,64.14
2016-04-27T12:03:39.417Z,67.62
2016-04-27T12:04:39.455Z,69.46
2016-04-27T12:05:39.507Z,68.88
2016-04-27T12:06:39.543Z,67.24
2016-04-27T12:07:39.594Z,65.92
2016-04-27T12:08:39.630Z,65.01
2016-04-27T12:09:39.681Z,64.66
2016-04-27T12:10:39.716Z,63.98
2016-04-27T12:11:39.752Z,64.18
2016-04-27T12:12:39.786Z,64.24
2016-04-27T12:13:39.836Z,63.89
2016-04-27T12:14:39.871Z,63.95
2016-04-27T12:15:39.921Z,64.05
2016-04-27T12:16:39.955Z,64.14
2016-04-27T12:17:40.005Z,64.14
2016-04-27T12:18:40.039Z,63.98
2016-04-27T12:19:40.072Z,63.76
2016-04-27T12:20:40.123Z,64.05
2016-04-27T12:21:40.157Z,64.08
2016-04-27T12:22:40.205Z,63.85
2016-04-27T12:23:40.240Z,64.24
2016-04-27T12:24:40.291Z,64.08
2016-04-27T12:25:40.324Z,64.05
2016-04-27T12:26:40.374Z,63.56
2016-04-27T12:27:40.407Z,63.56
2016-04-27T12:28:40.441Z,63.37
2016-04-27T12:29:40.490Z,63.66
2016-04-27T12:30:40.524Z,63.69
2016-04-27T12:31:40.574Z,63.69
2016-04-27T12:32:40.608Z,64.14
2016-04-27T12:33:40.657Z,63.98
2016-04-27T12:34:40.692Z,63.89
2016-04-27T12:35:40.726Z,63.69
2016-04-27T12:36:40.775Z,69.07
2016-04-27T12:37:40.809Z,70.65
2016-04-27T12:38:41.218Z,66.01
2016-04-27T12:39:40.893Z,65.34
2016-04-27T12:40:40.943Z,65.14
2016-04-27T12:41:40.976Z,64.95
2016-04-27T12:42:41.026Z,64.66
2016-04-27T12:43:41.059Z,64.66
2016-04-27T12:44:41.109Z,64.56
2016-04-27T12:45:41.143Z,64.76
2016-04-27T12:46:41.177Z,64.95
2016-04-27T12:47:41.227Z,64.76
2016-04-27T12:48:41.261Z,65.24
2016-04-27T12:49:41.294Z,65.43
2016-04-27T12:50:41.344Z,65.24
2016-04-27T12:51:41.378Z,64.21
2016-04-27T12:52:41.427Z,63.14
2016-04-27T12:53:41.461Z,63.14
2016-04-27T12:54:41.511Z,62.66
2016-04-27T12:55:41.544Z,62.85
2016-04-27T12:56:41.579Z,63.05
2016-04-27T12:57:41.638Z,63.53
2016-04-27T12:58:41.673Z,63.5
2016-04-27T12:59:41.722Z,63.21
2016-04-27T13:00:41.756Z,63.6
2016-04-27T13:01:41.789Z,64.24
2016-04-27T13:02:41.840Z,63.95
2016-04-27T13:03:41.873Z,63.85
2016-04-27T13:04:41.923Z,64.34
2016-04-27T13:05:41.957Z,64.34
2016-04-27T13:06:42.006Z,64.63
2016-04-27T13:07:42.039Z,64.63
2016-04-27T13:08:42.089Z,64.92
2016-04-27T13:09:42.123Z,65.17
2016-04-27T13:10:42.158Z,64.89
2016-04-27T13:11:42.208Z,64.59
2016-04-27T13:12:42.273Z,64.89
2016-04-27T13:13:42.291Z,64.89
2016-04-27T13:14:42.341Z,65.08
2016-04-27T13:15:42.375Z,64.69
2016-04-27T13:16:42.424Z,65.08
2016-04-27T13:17:42.474Z,65.37
2016-04-27T13:18:42.492Z,65.27
2016-04-27T13:19:42.542Z,65.56
2016-04-27T13:20:42.591Z,65.27
2016-04-27T13:21:42.625Z,65.47
2016-04-27T13:22:42.674Z,65.27
2016-04-27T13:23:42.896Z,65.56
2016-04-27T13:24:42.743Z,65.08
2016-04-27T13:25:42.807Z,64.79
2016-04-27T13:26:42.826Z,64.98
2016-04-27T13:27:42.876Z,64.95
2016-04-27T13:28:42.925Z,64.86
2016-04-27T13:29:42.959Z,64.95
2016-04-27T13:30:43.009Z,64.76
2016-04-27T13:31:43.042Z,65.05
2016-04-27T13:32:43.092Z,64.37
2016-04-27T13:33:43.126Z,64.76
2016-04-27T13:34:43.175Z,65.14
2016-04-27T13:35:43.209Z,65.14
2016-04-27T13:36:43.259Z,64.66
2016-04-27T13:37:43.293Z,64.86
2016-04-27T13:38:43.342Z,64.66
2016-04-27T13:39:43.376Z,64.47
2016-04-27T13:40:43.426Z,64.47
2016-04-27T13:41:43.459Z,64.37
2016-04-27T13:42:43.510Z,64.18
2016-04-27T13:43:43.544Z,64.18
2016-04-27T13:44:43.593Z,64.15
2016-04-27T13:45:43.627Z,64.15
2016-04-27T13:46:43.676Z,64.05
2016-04-27T13:47:43.726Z,64.31
2016-04-27T13:48:43.760Z,64.21
2016-04-27T13:49:43.793Z,64.02